Airfield :
LOGIN :

Register | Disclaimer

   EN    FR    IT 

 










Legend :    VFR   Marginal VFR   IFR   Intensive IFR   Very Intensive IFR
Visi :
Ceiling :
>= 8 km
>= 3000ft
5 to 8 km
1000 to 3000 ft
1500m to 5 km
500 to 1000 ft
800 to 1500m
200 to 500 ft
< 800m
< 200 ft
Symbols :   Thunderstorms  Fog  Heavy snow  Heavy precipitations  Wind > 20 kt
SIGMETs :     Misc.  Thunderstorms  Icing  Turbulence  Mountain Waves  Volcanic Ashes






- Airport Elevation : 125 ft
- IATA code : MGL


EDLN - Mönchengladbach

CURRENT METAR :
  • 261050Z 23008KT 200V260 3300 BR SCT011 OVC016 03/01 Q1032

EXPIRED METARs :
  • 261020Z 23006KT 200V260 3200 BR BKN011 OVC018 02/01 Q1033
  • 260950Z 23006KT 210V320 3600 BR FEW012 OVC018 03/00 Q1033
  • 260920Z 23006KT 200V260 3400 BR FEW012 OVC017 02/00 Q1032
  • 260850Z 23003KT 4000 BR SCT015 OVC020 02/00 Q1033
  • 260820Z 23004KT 190V290 3800 BR SCT013 OVC020 02/M00 Q1032

TAF TAF EDLN
Valid from the 26 at 09:00 until the 26 at 18:00 UTC


260800Z 2609/2618 24004KT 6000 OVC015
TEMPO 2609/2612 4000 BR BKN013



MET'MAP, your aeronautical weather chart ! - Copyright ORBIFLY December 2007 - Disclaimer

ORBIFLY MET'MAP TEAM :

Programming & Development : Alexandra Zaïnal
Original concept : Baudouin d'Aumeries
Technical & hardware support : Manuel Goepfert
Assistance : Marc-Olivier Méhu

Contact : metmap@orbifly.com




SOURCES & CREDITS :

   NOAA